Time;durP1;ratioP1;P1;durP2;ratioP2;P2;SDS_P1;SDS_P2;PMS_P1;PMS_P2;Temp;Humidity;BMP_temperature;BMP_pressure;BME280_temperature;BME280_humidity;BME280_pressure;Samples;Min_cycle;Max_cycle;Signal;HPM_P1;HPM_P2
2023/11/17 08:45:54;;;;;;;5.30;4.33;;;;;;;9.11;100.00;99074.13;5149785;27;20557;-89
2023/11/17 08:48:23;;;;;;;6.63;3.63;;;;;;;9.60;100.00;99081.13;5166877;27;39396;-85
2023/11/17 08:51:11;;;;;;;5.30;3.70;;;;;;;9.72;100.00;99048.69;5131631;27;41977;-86
2023/11/17 08:53:59;;;;;;;4.23;3.20;;;;;;;10.06;100.00;99060.88;5131430;27;41985;-87
2023/11/17 09:11:59;;;;;;;4.27;3.07;;;;;;;10.88;99.85;99057.81;5168714;27;42726;-91
2023/11/17 09:14:27;;;;;;;6.30;3.07;;;;;;;11.36;99.01;99122.06;5153385;27;40783;-90
2023/11/17 09:16:56;;;;;;;5.63;3.20;;;;;;;11.37;98.00;99114.03;5136128;27;41284;-89
2023/11/17 09:19:24;;;;;;;3.70;2.87;;;;;;;11.36;97.93;99080.50;5134232;27;42907;-90
2023/11/17 09:21:53;;;;;;;3.93;2.90;;;;;;;11.54;95.59;99094.38;5148369;27;41099;-87
2023/11/17 09:24:21;;;;;;;4.17;2.10;;;;;;;11.72;94.88;99119.78;5192232;27;39935;-88
2023/11/17 09:26:48;;;;;;;3.37;2.80;;;;;;;11.85;93.52;99128.69;5156334;27;42314;-90
2023/11/17 09:29:19;;;;;;;2.50;2.30;;;;;;;11.78;93.93;99122.06;5156404;27;42750;-89
2023/11/17 09:31:47;;;;;;;2.93;2.73;;;;;;;11.85;93.92;99139.31;5155675;27;41623;-89
2023/11/17 09:34:15;;;;;;;5.27;2.37;;;;;;;11.81;94.44;99129.84;5156490;27;39437;-88
2023/11/17 09:36:43;;;;;;;2.87;2.67;;;;;;;11.87;93.08;99129.44;5155588;27;40713;-88
2023/11/17 09:39:11;;;;;;;3.20;2.73;;;;;;;11.90;91.74;99148.75;5156400;27;42994;-88
2023/11/17 09:41:40;;;;;;;4.17;3.27;;;;;;;11.71;91.96;99123.38;5154205;27;41094;-89
2023/11/17 09:44:10;;;;;;;3.43;2.70;;;;;;;11.91;91.13;99147.81;5171777;27;39814;-88
2023/11/17 09:46:49;;;;;;;3.67;2.47;;;;;;;11.84;89.59;99134.94;5140398;27;40594;-89
2023/11/17 09:49:18;;;;;;;3.13;2.83;;;;;;;11.91;88.28;99150.47;5140951;27;42860;-89
2023/11/17 09:51:49;;;;;;;4.43;2.93;;;;;;;11.66;85.41;99121.94;5140703;27;41091;-87
2023/11/17 09:54:23;;;;;;;3.27;2.37;;;;;;;11.81;84.49;99156.38;5157932;27;39300;-89
2023/11/17 09:56:54;;;;;;;3.07;2.47;;;;;;;11.91;83.71;99169.06;5155136;27;41774;-87
2023/11/17 09:59:23;;;;;;;3.33;2.60;;;;;;;11.78;85.23;99116.75;5140855;27;41637;-87
2023/11/17 10:01:56;;;;;;;3.17;2.70;;;;;;;12.12;83.92;99159.72;5140426;27;44265;-89
2023/11/17 10:04:26;;;;;;;5.83;2.87;;;;;;;12.25;82.74;99155.31;5141353;27;38675;-89
2023/11/17 10:06:55;;;;;;;3.90;2.40;;;;;;;12.52;82.18;99158.84;5157856;27;42087;-89
2023/11/17 10:09:24;;;;;;;2.57;2.37;;;;;;;12.53;81.47;99149.94;5140709;27;41860;-90
2023/11/17 10:11:53;;;;;;;2.80;2.47;;;;;;;12.71;81.12;99147.03;5140588;27;40945;-91
2023/11/17 10:14:26;;;;;;;3.80;2.20;;;;;;;12.92;80.45;99157.06;5141675;27;39178;-87
2023/11/17 10:16:58;;;;;;;3.00;2.43;;;;;;;12.85;78.62;99144.28;5141528;27;41777;-89
2023/11/17 10:19:26;;;;;;;7.17;2.20;;;;;;;12.98;76.10;99145.19;5155855;27;43854;-89
2023/11/17 10:21:54;;;;;;;2.10;1.90;;;;;;;13.57;75.26;99161.53;5140964;27;40951;-90
2023/11/17 10:24:22;;;;;;;3.57;2.10;;;;;;;14.48;71.21;99192.25;5141325;27;41502;-86
2023/11/17 10:26:50;;;;;;;3.83;2.07;;;;;;;15.05;69.12;99197.75;5157607;27;42811;-85
2023/11/17 10:29:17;;;;;;;4.87;2.70;;;;;;;14.97;65.29;99173.44;5139037;27;42915;-84
2023/11/17 10:31:47;;;;;;;2.53;2.20;;;;;;;15.76;64.31;99206.56;5140857;27;41097;-88
2023/11/17 10:34:16;;;;;;;2.80;2.00;;;;;;;15.65;60.58;99214.56;5144443;27;39391;-85
2023/11/17 10:37:04;;;;;;;4.90;2.20;;;;;;;15.78;62.00;99207.28;5157615;27;43310;-86
2023/11/17 10:39:32;;;;;;;2.47;1.77;;;;;;;15.43;61.70;99199.31;5157797;27;42972;-89
2023/11/17 10:42:17;;;;;;;2.20;2.00;;;;;;;14.97;60.80;99196.59;5140929;27;40940;-88
2023/11/17 10:44:45;;;;;;;2.00;1.70;;;;;;;14.73;62.45;99194.81;5140558;27;38797;-89
2023/11/17 10:47:17;;;;;;;2.43;2.13;;;;;;;14.67;61.68;99189.94;5139395;27;40691;-90
2023/11/17 10:49:49;;;;;;;3.33;1.80;;;;;;;14.70;60.32;99199.53;5140399;27;43066;-86
2023/11/17 10:52:26;;;;;;;2.37;2.10;;;;;;;14.98;60.12;99198.31;5139774;27;43309;-85
2023/11/17 10:54:54;;;;;;;3.47;1.80;;;;;;;14.90;58.98;99190.03;5154155;27;40116;-88
2023/11/17 10:57:22;;;;;;;1.77;1.60;;;;;;;14.83;58.67;99205.66;5155557;27;42338;-86
2023/11/17 10:59:49;;;;;;;2.10;1.80;;;;;;;14.77;56.97;99221.25;5140043;27;42555;-88
2023/11/17 11:02:16;;;;;;;2.00;1.63;;;;;;;14.60;58.14;99207.34;5139850;27;42518;-88
2023/11/17 11:04:46;;;;;;;1.93;1.70;;;;;;;14.60;58.91;99210.00;5139578;27;39087;-89
2023/11/17 11:07:15;;;;;;;3.20;1.50;;;;;;;14.53;58.47;99189.25;5139634;27;41351;-92
2023/11/17 11:09:43;;;;;;;2.10;1.40;;;;;;;14.51;58.98;99192.03;5139859;27;41439;-90
2023/11/17 11:12:13;;;;;;;3.23;1.47;;;;;;;14.53;58.50;99203.44;5140395;27;42263;-86
2023/11/17 11:14:41;;;;;;;5.00;1.73;;;;;;;14.55;58.89;99188.19;5140618;27;40294;-89
2023/11/17 11:17:11;;;;;;;1.57;1.47;;;;;;;14.81;58.10;99204.91;5140199;27;41919;-87
2023/11/17 11:19:40;;;;;;;2.37;1.40;;;;;;;14.95;58.44;99188.75;5140416;27;41942;-87
2023/11/17 11:22:08;;;;;;;1.70;1.50;;;;;;;15.21;58.30;99205.41;5140243;27;42531;-87
2023/11/17 11:24:38;;;;;;;2.27;1.43;;;;;;;15.10;57.77;99198.22;5140291;27;38760;-87
2023/11/17 11:27:07;;;;;;;1.60;1.30;;;;;;;14.96;58.06;99205.59;5140133;27;41572;-91
2023/11/17 11:29:38;;;;;;;1.60;1.50;;;;;;;14.76;57.85;99200.88;5140342;27;43319;-86
2023/11/17 11:32:06;;;;;;;2.50;1.40;;;;;;;14.64;58.13;99200.81;5140663;27;42252;-89
2023/11/17 11:34:35;;;;;;;5.63;1.60;;;;;;;14.62;58.13;99210.75;5140337;27;38880;-88
2023/11/17 11:37:04;;;;;;;1.73;1.40;;;;;;;14.69;57.87;99211.16;5140003;27;40855;-90
2023/11/17 11:39:32;;;;;;;2.30;1.50;;;;;;;14.48;58.58;99208.22;5140229;27;43363;-93
2023/11/17 11:42:06;;;;;;;1.70;1.60;;;;;;;14.34;58.24;99195.06;5138255;27;42163;-85
2023/11/17 11:44:34;;;;;;;3.20;1.50;;;;;;;14.52;58.69;99217.72;5138865;27;39111;-86
2023/11/17 11:47:03;;;;;;;2.70;1.27;;;;;;;14.41;58.59;99201.66;5138857;27;41856;-86
2023/11/17 11:49:32;;;;;;;1.70;1.60;;;;;;;14.42;59.05;99198.03;5138590;27;41966;-85
2023/11/17 11:52:09;;;;;;;1.87;1.57;;;;;;;14.37;58.53;99202.81;5138507;27;42447;-89
2023/11/17 11:54:37;;;;;;;2.47;1.67;;;;;;;14.37;58.71;99213.47;5139042;27;38520;-89
2023/11/17 11:57:24;;;;;;;2.03;1.40;;;;;;;14.38;58.32;99217.81;5138465;27;41802;-90
2023/11/17 11:59:52;;;;;;;2.00;1.40;;;;;;;14.34;56.70;99229.69;5138408;27;41929;-87
2023/11/17 12:02:19;;;;;;;2.13;1.27;;;;;;;14.33;57.07;99222.66;5138725;27;41113;-87
2023/11/17 12:04:54;;;;;;;3.13;1.60;;;;;;;14.29;55.05;99247.81;5138701;27;40258;-90
2023/11/17 12:07:37;;;;;;;1.90;1.40;;;;;;;13.97;54.69;99226.94;5153428;27;42318;-88
2023/11/17 12:10:13;;;;;;;3.30;1.60;;;;;;;13.84;56.52;99223.47;5138166;27;43036;-89
2023/11/17 12:12:46;;;;;;;5.20;1.30;;;;;;;13.68;57.89;99198.03;5139273;27;41639;-88
2023/11/17 12:15:13;;;;;;;3.23;1.73;;;;;;;13.50;57.69;99185.03;5139196;27;40351;-87
2023/11/17 12:17:46;;;;;;;1.60;1.50;;;;;;;13.68;58.40;99224.63;5139456;27;40728;-90
2023/11/17 12:20:23;;;;;;;1.90;1.50;;;;;;;13.63;58.82;99216.97;5139414;27;42836;-90
2023/11/17 12:22:57;;;;;;;2.50;1.63;;;;;;;13.53;58.15;99222.06;5138995;27;42550;-82
2023/11/17 12:25:27;;;;;;;1.80;1.70;;;;;;;13.38;56.62;99239.06;5153234;27;40914;-83
2023/11/17 12:27:56;;;;;;;2.30;1.67;;;;;;;13.15;56.83;99222.00;5138744;27;42311;-82
2023/11/17 12:30:24;;;;;;;5.00;1.73;;;;;;;13.01;57.77;99211.41;5156078;27;42080;-82
2023/11/17 12:32:52;;;;;;;1.57;1.43;;;;;;;13.10;58.15;99228.59;5138969;27;41500;-82
2023/11/17 12:35:21;;;;;;;2.90;1.60;;;;;;;13.04;58.14;99229.81;5156457;27;40980;-82
2023/11/17 12:37:49;;;;;;;2.33;1.67;;;;;;;12.75;57.14;99204.31;5155587;27;41169;-83
2023/11/17 12:40:18;;;;;;;4.10;1.47;;;;;;;12.96;57.27;99237.47;5138643;27;44131;-82
2023/11/17 12:42:45;;;;;;;1.53;1.40;;;;;;;12.91;57.29;99234.25;5155073;27;42278;-83
2023/11/17 12:45:16;;;;;;;1.67;1.57;;;;;;;12.77;56.15;99236.97;5173981;27;40189;-82
2023/11/17 12:47:44;;;;;;;2.13;1.60;;;;;;;12.76;57.55;99224.63;5173530;27;42815;-82
2023/11/17 12:50:12;;;;;;;2.60;1.50;;;;;;;12.80;56.09;99247.41;5155554;27;43695;-82
2023/11/17 12:52:54;;;;;;;1.40;1.30;;;;;;;12.91;57.69;99227.13;5154835;27;41897;-82
2023/11/17 12:55:22;;;;;;;3.90;1.67;;;;;;;12.91;57.95;99213.84;5154499;27;40090;-82
2023/11/17 12:57:49;;;;;;;2.10;1.33;;;;;;;12.95;58.27;99209.19;5136845;27;43097;-83
2023/11/17 13:00:27;;;;;;;1.53;1.43;;;;;;;12.98;58.69;99208.13;5154977;27;42355;-85
2023/11/17 13:02:56;;;;;;;4.00;1.70;;;;;;;12.96;59.04;99210.88;5153625;27;43229;-86
2023/11/17 13:05:24;;;;;;;1.40;1.30;;;;;;;12.84;58.79;99211.69;5138057;27;39099;-89
2023/11/17 13:07:51;;;;;;;1.30;1.10;;;;;;;12.86;58.62;99241.66;5137104;27;42101;-84
2023/11/17 13:10:19;;;;;;;2.20;1.50;;;;;;;12.64;58.75;99225.41;5136425;27;41952;-86
2023/11/17 13:12:47;;;;;;;1.40;1.30;;;;;;;12.50;59.07;99219.19;5154979;27;43185;-89
2023/11/17 13:15:15;;;;;;;3.77;1.47;;;;;;;12.43;59.05;99222.34;5138477;27;39580;-85
2023/11/17 13:17:44;;;;;;;1.33;1.20;;;;;;;12.29;59.70;99211.75;5138176;27;41235;-88
2023/11/17 13:20:16;;;;;;;2.03;1.50;;;;;;;12.23;59.59;99220.97;5139792;27;41733;-89
2023/11/17 13:22:45;;;;;;;1.97;1.73;;;;;;;12.13;60.14;99225.13;5159267;27;41134;-87
2023/11/17 13:25:14;;;;;;;2.00;1.27;;;;;;;12.02;60.28;99227.63;5141842;27;39255;-87
2023/11/17 13:27:42;;;;;;;2.03;1.60;;;;;;;11.95;60.48;99221.00;5142370;27;40660;-87
2023/11/17 13:30:12;;;;;;;2.50;1.60;;;;;;;11.81;59.98;99220.06;5144687;27;42912;-84
2023/11/17 13:32:54;;;;;;;2.00;1.73;;;;;;;11.81;60.63;99225.38;5161254;27;43397;-85
2023/11/17 13:35:24;;;;;;;2.03;1.50;;;;;;;11.73;60.96;99216.16;5149239;27;39040;-87
2023/11/17 13:37:52;;;;;;;2.07;1.50;;;;;;;11.74;60.68;99234.63;5141818;27;41194;-88
2023/11/17 13:40:26;;;;;;;3.27;1.53;;;;;;;11.51;61.83;99204.16;5141872;27;43263;-89
2023/11/17 13:42:55;;;;;;;1.87;1.47;;;;;;;11.66;61.92;99242.19;5140321;27;42703;-89
2023/11/17 13:45:24;;;;;;;2.23;1.60;;;;;;;11.59;62.76;99230.25;5140902;27;40327;-89
2023/11/17 13:48:02;;;;;;;1.47;1.20;;;;;;;11.59;63.04;99229.38;5140404;27;42214;-91
2023/11/17 13:50:29;;;;;;;1.60;1.40;;;;;;;11.63;63.21;99247.66;5140601;27;43157;-86
2023/11/17 13:52:58;;;;;;;1.63;1.50;;;;;;;11.54;63.70;99232.31;5140309;27;42505;-87
2023/11/17 13:55:27;;;;;;;2.33;1.30;;;;;;;11.35;63.55;99221.13;5140658;27;39440;-90
2023/11/17 13:57:56;;;;;;;3.57;1.70;;;;;;;11.37;63.54;99236.00;5140280;27;43454;-89
2023/11/17 14:00:25;;;;;;;2.97;1.50;;;;;;;11.42;63.51;99260.44;5140583;27;43054;-89
2023/11/17 14:02:54;;;;;;;1.67;1.53;;;;;;;11.29;63.62;99242.69;5140700;27;41258;-85
2023/11/17 14:05:23;;;;;;;1.67;1.57;;;;;;;11.30;64.06;99265.59;5140535;27;38919;-89
2023/11/17 14:07:52;;;;;;;2.37;1.57;;;;;;;11.24;64.35;99250.06;5140417;27;40845;-87
2023/11/17 14:10:20;;;;;;;1.73;1.40;;;;;;;11.18;64.74;99251.25;5140090;27;42918;-88
2023/11/17 14:12:49;;;;;;;1.50;1.27;;;;;;;11.14;64.67;99245.28;5158123;27;41215;-88
2023/11/17 14:15:19;;;;;;;3.07;1.47;;;;;;;11.25;65.07;99267.69;5141588;27;39041;-91
2023/11/17 14:17:47;;;;;;;2.10;1.60;;;;;;;11.24;64.73;99271.28;5141337;27;41795;-88
2023/11/17 14:20:17;;;;;;;1.43;1.33;;;;;;;11.13;64.89;99248.03;5141020;27;41502;-87
2023/11/17 14:22:48;;;;;;;2.40;1.40;;;;;;;11.16;65.22;99253.16;5141478;27;41203;-85
2023/11/17 14:25:17;;;;;;;1.30;1.20;;;;;;;11.19;65.37;99246.81;5138739;27;38898;-85
2023/11/17 14:27:46;;;;;;;2.30;1.20;;;;;;;11.28;65.80;99267.47;5157396;27;42110;-89
2023/11/17 14:30:18;;;;;;;2.20;1.50;;;;;;;11.13;65.51;99248.88;5157202;27;43544;-85
2023/11/17 14:32:46;;;;;;;2.13;1.30;;;;;;;11.09;65.29;99252.66;5139886;27;42419;-89
2023/11/17 14:35:17;;;;;;;2.53;1.60;;;;;;;11.05;65.65;99253.78;5139681;27;39030;-89
2023/11/17 14:37:46;;;;;;;2.10;1.30;;;;;;;11.06;66.01;99268.75;5139580;27;40960;-85
2023/11/17 14:40:17;;;;;;;2.90;1.60;;;;;;;11.00;66.08;99252.34;5139462;27;43245;-89
2023/11/17 14:42:45;;;;;;;1.50;1.40;;;;;;;10.94;66.00;99258.84;5139845;27;41729;-89
2023/11/17 14:45:14;;;;;;;1.60;1.50;;;;;;;10.83;65.65;99250.66;5140031;27;39057;-85
2023/11/17 14:47:43;;;;;;;1.60;1.50;;;;;;;10.82;65.29;99256.03;5138285;27;40831;-90
2023/11/17 14:50:13;;;;;;;3.73;1.60;;;;;;;10.65;65.72;99239.31;5140223;27;41796;-90
2023/11/17 14:52:41;;;;;;;2.27;1.70;;;;;;;10.59;65.96;99241.47;5139789;27;42586;-90
2023/11/17 14:55:11;;;;;;;2.57;1.97;;;;;;;10.74;65.90;99272.38;5140107;27;39114;-90
2023/11/17 14:57:39;;;;;;;2.20;1.77;;;;;;;10.60;66.41;99253.78;5140143;27;40539;-91
2023/11/17 15:00:16;;;;;;;2.00;1.70;;;;;;;10.65;66.93;99283.47;5140307;27;41765;-90
2023/11/17 15:02:45;;;;;;;1.60;1.50;;;;;;;10.49;67.15;99269.41;5139465;27;40995;-91
2023/11/17 15:05:19;;;;;;;1.50;1.40;;;;;;;10.50;67.56;99284.34;5139933;27;39862;-90
2023/11/17 15:07:47;;;;;;;1.43;1.33;;;;;;;10.29;68.09;99265.19;5155973;27;42577;-90
2023/11/17 15:10:19;;;;;;;2.03;1.20;;;;;;;10.21;68.27;99273.56;5139308;27;41624;-89
2023/11/17 15:12:48;;;;;;;2.63;1.57;;;;;;;10.06;68.22;99274.34;5141215;27;41237;-91
2023/11/17 15:15:26;;;;;;;2.20;1.33;;;;;;;9.90;68.85;99252.28;5140996;27;39633;-90
2023/11/17 15:17:54;;;;;;;2.50;1.13;;;;;;;10.03;69.09;99290.38;5140895;27;42477;-89
2023/11/17 15:20:23;;;;;;;1.43;1.23;;;;;;;9.86;69.50;99271.91;5140387;27;41832;-90
2023/11/17 15:22:51;;;;;;;3.90;1.30;;;;;;;9.92;70.00;99292.75;5140456;27;42274;-88
2023/11/17 15:25:24;;;;;;;1.40;1.30;;;;;;;9.82;69.92;99288.88;5140762;27;39202;-90
2023/11/17 15:27:53;;;;;;;2.23;1.30;;;;;;;9.70;70.17;99278.00;5140770;27;40830;-90
2023/11/17 15:30:26;;;;;;;3.10;1.73;;;;;;;9.70;70.62;99304.47;5140168;27;42753;-90
2023/11/17 15:32:53;;;;;;;2.00;1.50;;;;;;;9.58;70.54;99294.50;5157661;27;41499;-90
2023/11/17 15:35:23;;;;;;;1.50;1.23;;;;;;;9.46;70.87;99289.84;5140687;27;39416;-91
2023/11/17 15:37:51;;;;;;;1.73;1.63;;;;;;;9.25;71.33;99275.09;5141063;27;40385;-91
2023/11/17 15:40:21;;;;;;;2.53;2.00;;;;;;;9.20;71.49;99282.38;5141193;27;41895;-91
2023/11/17 15:42:49;;;;;;;3.63;2.23;;;;;;;9.14;71.65;99285.34;5138342;27;42032;-91
2023/11/17 15:45:22;;;;;;;3.03;2.40;;;;;;;9.04;71.98;99262.94;5140062;27;38408;-90
2023/11/17 15:47:50;;;;;;;3.30;2.50;;;;;;;9.18;72.22;99300.09;5139458;27;40892;-90
2023/11/17 15:50:18;;;;;;;3.43;2.40;;;;;;;9.13;72.37;99296.84;5139347;27;42879;-90
2023/11/17 15:52:46;;;;;;;2.57;2.13;;;;;;;9.02;72.78;99291.25;5139365;27;41112;-90
2023/11/17 15:55:16;;;;;;;3.03;2.40;;;;;;;8.96;73.08;99290.59;5139661;27;38503;-91
2023/11/17 15:57:46;;;;;;;6.40;2.60;;;;;;;9.09;73.60;99313.78;5138966;27;40817;-91
2023/11/17 16:00:23;;;;;;;2.90;2.30;;;;;;;8.97;73.61;99304.66;5139213;27;43321;-91
2023/11/17 16:02:51;;;;;;;2.97;2.40;;;;;;;8.95;73.74;99304.72;5122176;27;41619;-90
2023/11/17 16:05:22;;;;;;;4.23;2.43;;;;;;;9.04;73.79;99316.63;5139191;27;39021;-91
2023/11/17 16:07:51;;;;;;;2.60;1.87;;;;;;;9.04;74.03;99321.06;5122423;27;40703;-91
2023/11/17 16:10:22;;;;;;;3.53;2.70;;;;;;;8.91;74.50;99303.16;5138703;27;43217;-90
2023/11/17 16:12:53;;;;;;;3.10;2.30;;;;;;;8.84;74.68;99293.84;5139686;27;41197;-93
2023/11/17 16:15:22;;;;;;;3.10;2.53;;;;;;;8.94;74.85;99313.59;5140276;27;41076;-91
2023/11/17 16:17:54;;;;;;;3.27;2.70;;;;;;;8.95;74.75;99325.00;5139660;27;40707;-92
2023/11/17 16:20:23;;;;;;;3.00;2.57;;;;;;;8.85;75.05;99315.81;5154837;27;42620;-91
2023/11/17 16:22:53;;;;;;;2.83;2.30;;;;;;;8.77;75.05;99313.56;5142701;27;42193;-91
2023/11/17 16:25:21;;;;;;;3.27;2.10;;;;;;;8.66;75.58;99307.91;5149243;27;38766;-91
2023/11/17 16:27:51;;;;;;;4.37;2.80;;;;;;;8.84;76.02;99336.09;5159892;27;40611;-90
2023/11/17 16:30:20;;;;;;;2.43;2.23;;;;;;;8.73;75.98;99325.19;5162881;27;41973;-91
2023/11/17 16:32:49;;;;;;;4.33;2.70;;;;;;;8.74;75.93;99329.53;5140579;27;40876;-92
2023/11/17 16:35:18;;;;;;;4.27;2.50;;;;;;;8.73;76.19;99338.38;5140463;27;39663;-91
2023/11/17 16:37:49;;;;;;;3.70;2.60;;;;;;;8.76;76.25;99343.53;5138623;27;40987;-90
2023/11/17 16:40:22;;;;;;;5.33;3.10;;;;;;;8.77;76.66;99342.59;5139088;27;42051;-91
2023/11/17 16:42:58;;;;;;;2.73;2.10;;;;;;;8.82;76.68;99353.78;5138993;27;41290;-90
2023/11/17 16:45:29;;;;;;;3.57;2.40;;;;;;;8.90;76.59;99364.84;5156220;27;40064;-90
2023/11/17 16:47:58;;;;;;;3.90;2.67;;;;;;;8.81;76.27;99352.06;5138484;27;40852;-91
2023/11/17 16:50:26;;;;;;;2.53;2.23;;;;;;;8.88;76.38;99366.72;5138861;27;42148;-90
2023/11/17 16:52:54;;;;;;;4.13;2.67;;;;;;;8.90;76.66;99372.75;5138459;27;42447;-92
2023/11/17 16:55:22;;;;;;;3.37;2.70;;;;;;;8.85;76.43;99361.56;5140280;27;39115;-90
2023/11/17 16:57:51;;;;;;;4.67;3.27;;;;;;;8.79;76.60;99353.94;5142286;27;40159;-92
2023/11/17 17:00:21;;;;;;;4.27;3.20;;;;;;;8.79;77.00;99351.28;5142488;27;42722;-91
2023/11/17 17:02:51;;;;;;;3.20;2.90;;;;;;;8.88;77.28;99365.88;5141695;27;42385;-92
2023/11/17 17:05:18;;;;;;;3.27;2.93;;;;;;;8.81;77.09;99348.56;5142387;27;40069;-91
2023/11/17 17:07:49;;;;;;;3.87;3.20;;;;;;;8.73;77.60;99335.75;5142099;27;40744;-91
2023/11/17 17:10:18;;;;;;;5.03;3.10;;;;;;;8.71;77.78;99347.31;5141841;27;41641;-91
2023/11/17 17:12:46;;;;;;;4.93;3.53;;;;;;;8.67;78.53;99341.31;5142833;27;43801;-92
2023/11/17 17:15:15;;;;;;;5.87;3.10;;;;;;;8.65;78.20;99340.53;5143169;27;39344;-92
2023/11/17 17:17:43;;;;;;;4.73;3.47;;;;;;;8.67;78.54;99348.38;5143014;27;40726;-92
2023/11/17 17:20:14;;;;;;;4.30;3.10;;;;;;;8.55;79.12;99320.75;5143348;27;42200;-91
2023/11/17 17:22:42;;;;;;;5.37;4.07;;;;;;;8.69;79.58;99359.72;5143180;27;41147;-92
2023/11/17 17:25:10;;;;;;;5.47;3.60;;;;;;;8.46;79.65;99322.06;5143114;27;38643;-91
2023/11/17 17:27:38;;;;;;;6.97;5.20;;;;;;;8.52;80.03;99349.97;5142878;27;41375;-91
2023/11/17 17:30:07;;;;;;;8.37;4.67;;;;;;;8.57;80.34;99362.00;5143183;27;41945;-91
2023/11/17 17:32:34;;;;;;;8.17;4.83;;;;;;;8.52;80.21;99363.16;5142452;27;41143;-91
2023/11/17 17:35:04;;;;;;;9.83;5.37;;;;;;;8.38;80.62;99345.31;5143118;27;39063;-91
2023/11/17 17:37:33;;;;;;;8.50;5.47;;;;;;;8.35;80.71;99356.00;5141482;27;40469;-91
2023/11/17 17:40:01;;;;;;;8.27;5.10;;;;;;;8.27;80.67;99358.97;5141478;27;42677;-92
2023/11/17 17:42:28;;;;;;;10.80;6.10;;;;;;;8.27;80.82;99374.78;5141308;27;41577;-91
2023/11/17 17:44:56;;;;;;;12.27;6.07;;;;;;;8.20;81.46;99383.91;5141946;27;38817;-92
2023/11/17 17:47:23;;;;;;;8.53;5.07;;;;;;;8.19;81.24;99376.91;5141267;27;40231;-92
2023/11/17 17:49:51;;;;;;;6.17;4.73;;;;;;;8.09;81.56;99366.81;5141288;27;41652;-91
2023/11/17 17:52:18;;;;;;;6.90;4.33;;;;;;;8.05;81.77;99371.38;5141370;27;40977;-91
2023/11/17 17:54:49;;;;;;;7.57;4.30;;;;;;;8.06;81.50;99375.72;5141326;27;39957;-90
2023/11/17 17:57:16;;;;;;;6.03;4.17;;;;;;;8.07;81.36;99388.00;5141201;27;40079;-92
2023/11/17 17:59:44;;;;;;;5.70;4.33;;;;;;;8.09;81.31;99391.44;5158738;27;43047;-92
2023/11/17 18:02:12;;;;;;;5.27;4.13;;;;;;;8.13;81.48;99398.28;5141343;27;40985;-92
2023/11/17 18:04:39;;;;;;;4.07;3.40;;;;;;;8.16;81.53;99400.78;5141021;27;38928;-91
2023/11/17 18:07:07;;;;;;;5.07;4.00;;;;;;;8.22;81.63;99405.78;5158010;27;41973;-91
2023/11/17 18:09:35;;;;;;;5.43;3.87;;;;;;;8.30;81.44;99413.34;5140183;27;41743;-91
2023/11/17 18:12:07;;;;;;;4.97;3.77;;;;;;;8.34;81.34;99430.81;5141837;27;42960;-91
2023/11/17 18:14:34;;;;;;;4.70;3.63;;;;;;;8.34;81.66;99419.41;5142417;27;39863;-91
2023/11/17 18:17:03;;;;;;;6.07;4.50;;;;;;;8.23;81.84;99404.88;5141718;27;41491;-91
2023/11/17 18:19:31;;;;;;;5.83;4.37;;;;;;;8.41;81.94;99428.75;5142014;27;42577;-91
2023/11/17 18:21:59;;;;;;;5.70;4.40;;;;;;;8.33;82.13;99412.41;5141811;27;43950;-91
2023/11/17 18:24:27;;;;;;;4.50;4.10;;;;;;;8.34;82.05;99430.81;5140185;27;38890;-91
2023/11/17 18:26:57;;;;;;;5.47;3.90;;;;;;;8.39;82.09;99435.91;5140316;27;41928;-91
2023/11/17 18:29:26;;;;;;;4.67;3.50;;;;;;;8.35;82.08;99442.22;5140768;27;43267;-90
2023/11/17 18:31:54;;;;;;;4.23;3.33;;;;;;;8.27;81.95;99430.22;5140984;27;44544;-91
2023/11/17 18:34:21;;;;;;;4.00;3.00;;;;;;;8.31;81.80;99433.56;5140397;27;39370;-91
2023/11/17 18:36:50;;;;;;;3.67;3.20;;;;;;;8.43;82.19;99448.03;5140399;27;40316;-91
2023/11/17 18:39:19;;;;;;;6.00;4.23;;;;;;;8.11;82.50;99394.88;5140378;27;41337;-91
